Time;durP1;ratioP1;P1;durP2;ratioP2;P2;SDS_P1;SDS_P2;PMS_P1;PMS_P2;Temp;Humidity;BMP_temperature;BMP_pressure;BME280_temperature;BME280_humidity;BME280_pressure;Samples;Min_cycle;Max_cycle;Signal;HPM_P1;HPM_P2
2023/01/03 00:01:44;;;;;;;4.35;3.38;;;7.80;99.90;;;;;;5088078;28;20982;-70
2023/01/03 00:04:11;;;;;;;4.80;3.40;;;7.90;99.90;;;;;;5083585;28;20441;-70
2023/01/03 00:06:40;;;;;;;4.20;3.30;;;7.90;99.90;;;;;;5084961;28;20429;-71
2023/01/03 00:09:10;;;;;;;4.05;3.33;;;7.90;99.90;;;;;;5087897;28;20414;-68
2023/01/03 00:14:26;;;;;;;4.63;3.38;;;7.90;99.90;;;;;;5080075;28;20393;-69
2023/01/03 00:16:55;;;;;;;4.20;3.33;;;8.00;99.90;;;;;;5087898;28;20413;-69
2023/01/03 00:19:23;;;;;;;3.90;3.30;;;8.00;99.90;;;;;;5087587;28;20436;-70
2023/01/03 00:21:50;;;;;;;4.93;3.60;;;8.00;99.90;;;;;;5087672;28;20424;-70
2023/01/03 00:24:17;;;;;;;4.20;3.40;;;7.90;99.90;;;;;;5088450;28;20417;-69
2023/01/03 00:26:45;;;;;;;4.82;3.50;;;7.90;99.90;;;;;;5086701;28;20440;-68
2023/01/03 00:29:12;;;;;;;4.20;3.80;;;7.90;99.90;;;;;;5088626;28;20409;-73
2023/01/03 00:31:40;;;;;;;4.57;4.05;;;7.90;99.90;;;;;;5088328;28;20424;-70
2023/01/03 00:34:07;;;;;;;5.00;3.97;;;7.90;99.90;;;;;;5093372;28;20698;-69
2023/01/03 00:36:34;;;;;;;4.38;3.97;;;7.90;99.90;;;;;;5101611;28;20420;-68
2023/01/03 00:39:01;;;;;;;4.50;4.10;;;7.90;99.90;;;;;;5101025;28;20929;-69
2023/01/03 00:41:29;;;;;;;4.30;3.90;;;7.90;99.90;;;;;;5098416;28;20425;-69
2023/01/03 00:43:57;;;;;;;4.97;4.03;;;7.90;99.90;;;;;;5103214;28;20555;-68
2023/01/03 00:46:24;;;;;;;5.17;4.00;;;7.90;99.90;;;;;;5104507;28;20920;-71
2023/01/03 00:48:51;;;;;;;4.43;3.60;;;7.90;99.90;;;;;;5098652;28;20418;-71
2023/01/03 00:51:19;;;;;;;4.50;3.60;;;7.90;99.90;;;;;;5087269;28;20414;-70
2023/01/03 00:53:47;;;;;;;4.30;3.90;;;7.80;99.90;;;;;;5086343;28;20888;-68
2023/01/03 00:56:17;;;;;;;4.63;4.13;;;7.70;99.90;;;;;;5084752;28;20919;-70
2023/01/03 00:58:44;;;;;;;5.38;3.60;;;7.80;99.90;;;;;;5087048;28;20531;-71
2023/01/03 01:01:15;;;;;;;4.07;3.78;;;7.80;99.90;;;;;;5087083;28;20532;-68
2023/01/03 01:03:45;;;;;;;4.30;3.40;;;7.80;99.90;;;;;;5085772;28;20475;-69
2023/01/03 01:06:14;;;;;;;4.20;3.80;;;7.80;99.90;;;;;;5086848;28;20532;-68
2023/01/03 01:08:41;;;;;;;4.00;3.60;;;7.80;99.90;;;;;;5086311;28;20425;-70
2023/01/03 01:11:08;;;;;;;4.65;3.92;;;7.80;99.90;;;;;;5084179;28;20429;-71
2023/01/03 01:13:36;;;;;;;6.15;4.20;;;7.80;99.90;;;;;;5086500;28;20417;-68
2023/01/03 01:16:03;;;;;;;4.75;4.28;;;7.80;99.90;;;;;;5087145;28;20410;-71
2023/01/03 01:18:32;;;;;;;4.63;4.03;;;7.80;99.70;;;;;;5085593;28;20409;-71
2023/01/03 01:20:59;;;;;;;4.05;3.65;;;7.70;99.60;;;;;;5087173;28;20433;-70
2023/01/03 01:23:26;;;;;;;5.25;3.50;;;7.60;99.80;;;;;;5084503;28;20434;-68
2023/01/03 01:25:52;;;;;;;4.10;3.60;;;7.50;99.90;;;;;;5084003;28;20509;-70
2023/01/03 01:28:19;;;;;;;5.10;3.40;;;7.40;99.90;;;;;;5086994;28;20425;-69
2023/01/03 01:30:46;;;;;;;4.90;3.40;;;7.40;99.90;;;;;;5100402;28;20412;-71
2023/01/03 01:33:12;;;;;;;4.22;3.30;;;7.30;99.90;;;;;;5099795;28;20421;-69
2023/01/03 01:35:41;;;;;;;5.38;3.72;;;7.30;99.90;;;;;;5100375;28;20519;-70
2023/01/03 01:38:07;;;;;;;4.13;3.22;;;7.30;99.90;;;;;;5092616;28;20413;-71
2023/01/03 01:40:34;;;;;;;4.70;3.50;;;7.20;99.90;;;;;;5085892;28;20437;-69
2023/01/03 01:45:56;;;;;;;5.67;3.07;;;7.20;99.90;;;;;;5087836;28;20432;-69
2023/01/03 01:48:22;;;;;;;5.93;3.30;;;7.10;99.90;;;;;;5087434;28;20440;-71
2023/01/03 01:50:54;;;;;;;6.13;3.17;;;7.10;99.90;;;;;;5096173;28;20410;-70
2023/01/03 01:53:25;;;;;;;4.30;3.25;;;7.10;99.90;;;;;;5089983;28;20413;-70
2023/01/03 01:55:54;;;;;;;4.15;3.67;;;7.00;99.90;;;;;;5087676;28;20433;-70
2023/01/03 01:58:23;;;;;;;3.47;2.88;;;7.00;99.90;;;;;;5084449;28;20418;-73
2023/01/03 02:00:50;;;;;;;4.00;2.90;;;6.90;99.90;;;;;;5087812;28;20418;-69
2023/01/03 02:03:17;;;;;;;4.00;3.30;;;6.90;99.90;;;;;;5086959;28;20430;-69
2023/01/03 02:05:47;;;;;;;4.30;3.40;;;6.90;99.90;;;;;;5085328;28;20418;-70
2023/01/03 02:08:15;;;;;;;6.03;3.45;;;6.90;99.90;;;;;;5084857;28;20416;-69
2023/01/03 02:11:09;;;;;;;4.75;3.10;;;6.80;99.90;;;;;;5082272;28;20429;-70
2023/01/03 02:13:47;;;;;;;4.03;3.22;;;6.80;99.90;;;;;;5080720;28;20443;-69
2023/01/03 02:16:35;;;;;;;4.40;3.30;;;6.70;99.90;;;;;;5070654;28;20450;-70
2023/01/03 02:19:22;;;;;;;5.15;3.20;;;6.60;99.90;;;;;;5070143;28;20877;-70
2023/01/03 02:22:20;;;;;;;6.13;3.60;;;6.50;99.90;;;;;;5082080;28;20450;-68
2023/01/03 02:25:19;;;;;;;4.60;2.90;;;6.50;99.90;;;;;;5045045;28;20478;-69
2023/01/03 02:28:11;;;;;;;5.65;3.00;;;6.50;99.90;;;;;;5101835;28;20452;-71
2023/01/03 02:30:45;;;;;;;6.55;3.25;;;6.40;99.90;;;;;;5098471;28;20410;-70
2023/01/03 02:33:22;;;;;;;5.90;3.70;;;6.40;99.90;;;;;;5101155;28;20401;-68
2023/01/03 02:35:58;;;;;;;5.30;3.00;;;6.30;99.90;;;;;;5097809;28;20413;-69
2023/01/03 02:38:34;;;;;;;4.47;3.20;;;6.30;99.90;;;;;;5096946;28;20760;-70
2023/01/03 02:41:06;;;;;;;7.30;3.40;;;6.20;99.90;;;;;;5088814;28;20501;-72
2023/01/03 02:43:40;;;;;;;4.78;3.40;;;6.00;99.90;;;;;;5091313;28;20524;-68
2023/01/03 02:46:15;;;;;;;5.93;3.90;;;5.90;99.90;;;;;;5091830;28;20406;-69
2023/01/03 02:48:48;;;;;;;4.70;3.50;;;5.90;99.90;;;;;;5092243;28;20406;-69
2023/01/03 02:51:20;;;;;;;5.70;3.50;;;5.90;99.90;;;;;;5105018;28;20972;-70
2023/01/03 02:53:50;;;;;;;4.30;3.15;;;5.90;99.90;;;;;;5104754;28;20400;-69
2023/01/03 02:56:21;;;;;;;5.00;3.65;;;5.80;99.90;;;;;;5093909;28;20426;-70
2023/01/03 02:58:53;;;;;;;4.10;3.70;;;5.80;99.90;;;;;;5089598;28;20410;-68
2023/01/03 03:01:21;;;;;;;5.50;3.50;;;5.70;99.90;;;;;;5090374;28;20485;-70
2023/01/03 03:03:48;;;;;;;5.43;3.47;;;5.70;99.90;;;;;;5086227;28;20413;-70
2023/01/03 03:06:25;;;;;;;5.30;3.22;;;5.70;99.90;;;;;;5089168;28;20902;-68
2023/01/03 03:08:52;;;;;;;3.88;3.40;;;5.70;99.90;;;;;;5089427;28;20492;-70
2023/01/03 03:14:09;;;;;;;4.25;3.10;;;5.80;99.90;;;;;;5093043;28;20388;-70
2023/01/03 03:16:48;;;;;;;5.80;3.45;;;5.80;99.90;;;;;;5089287;28;20430;-70
2023/01/03 03:25:09;;;;;;;5.32;3.78;;;5.50;99.90;;;;;;5085555;28;20431;-70
2023/01/03 03:30:25;;;;;;;4.50;4.10;;;5.50;99.90;;;;;;5081356;28;20389;-70
2023/01/03 03:32:58;;;;;;;6.88;4.20;;;5.60;99.90;;;;;;5087371;28;20410;-70
2023/01/03 03:35:28;;;;;;;4.88;4.47;;;5.80;99.90;;;;;;5081144;28;20422;-70
2023/01/03 03:37:56;;;;;;;7.45;4.70;;;5.80;99.90;;;;;;5086726;28;20888;-70
2023/01/03 03:46:10;;;;;;;5.03;4.30;;;6.20;99.90;;;;;;5088157;28;20471;-68
2023/01/03 03:51:32;;;;;;;5.63;4.17;;;6.30;99.90;;;;;;5087061;28;20405;-70
2023/01/03 03:54:04;;;;;;;4.80;4.23;;;6.30;99.90;;;;;;5083583;28;20429;-70
2023/01/03 03:56:34;;;;;;;6.07;4.10;;;6.30;99.90;;;;;;5087481;28;20413;-70
2023/01/03 03:59:05;;;;;;;4.38;3.97;;;6.30;99.90;;;;;;5087415;28;20441;-70
2023/01/03 04:01:33;;;;;;;5.30;4.13;;;6.30;99.90;;;;;;5089539;28;20422;-72
2023/01/03 04:04:07;;;;;;;4.10;3.70;;;6.30;99.90;;;;;;5102007;28;20497;-70
2023/01/03 04:06:38;;;;;;;4.72;4.10;;;6.30;99.90;;;;;;5089079;28;20410;-69
2023/01/03 04:09:07;;;;;;;5.50;4.00;;;6.30;99.90;;;;;;5085888;28;20460;-69
2023/01/03 04:11:34;;;;;;;4.50;4.10;;;6.30;99.90;;;;;;5086990;28;20898;-70
2023/01/03 04:14:01;;;;;;;4.43;3.97;;;6.30;99.90;;;;;;5086398;28;20864;-70
2023/01/03 04:16:28;;;;;;;5.05;4.20;;;6.30;99.90;;;;;;5087371;28;20422;-68
2023/01/03 04:18:55;;;;;;;5.03;4.25;;;6.20;99.90;;;;;;5085027;28;20433;-69
2023/01/03 04:21:23;;;;;;;4.55;4.00;;;6.20;99.90;;;;;;5086399;28;20527;-70
2023/01/03 04:23:49;;;;;;;5.10;3.93;;;6.20;99.90;;;;;;5085204;28;20422;-70
2023/01/03 04:26:16;;;;;;;5.82;3.60;;;6.20;99.90;;;;;;5085464;28;20422;-70
2023/01/03 04:28:43;;;;;;;5.28;3.50;;;6.10;99.90;;;;;;5087411;28;20513;-68
2023/01/03 04:31:10;;;;;;;5.88;3.90;;;6.10;99.90;;;;;;5088007;28;20446;-69
2023/01/03 04:33:36;;;;;;;7.80;4.00;;;6.00;99.90;;;;;;5085542;28;20551;-69
2023/01/03 04:36:04;;;;;;;4.78;3.70;;;6.00;99.90;;;;;;5086584;28;20417;-70
2023/01/03 04:38:32;;;;;;;4.75;3.45;;;6.00;99.90;;;;;;5089330;28;20409;-71
2023/01/03 04:41:04;;;;;;;4.10;3.45;;;6.10;99.90;;;;;;5098590;28;20437;-70
2023/01/03 04:46:15;;;;;;;3.97;3.50;;;6.30;99.90;;;;;;5100652;28;20481;-68
2023/01/03 04:48:42;;;;;;;4.03;3.60;;;6.40;99.90;;;;;;5089123;28;20410;-70
2023/01/03 04:51:08;;;;;;;2.92;2.70;;;6.50;99.90;;;;;;5092676;28;20855;-68
2023/01/03 04:53:36;;;;;;;4.97;3.45;;;6.60;99.90;;;;;;5096467;28;20452;-69
2023/01/03 04:56:03;;;;;;;4.68;3.20;;;6.70;99.90;;;;;;5100866;28;20440;-69
2023/01/03 04:58:30;;;;;;;5.00;3.40;;;6.80;99.90;;;;;;5099042;28;20413;-69
2023/01/03 05:01:00;;;;;;;4.35;3.30;;;6.90;99.90;;;;;;5096305;28;20521;-70
2023/01/03 05:03:27;;;;;;;3.88;3.50;;;7.00;99.90;;;;;;5092324;28;20406;-70
2023/01/03 05:05:57;;;;;;;4.40;3.10;;;6.90;99.90;;;;;;5094494;28;20512;-70
2023/01/03 05:08:24;;;;;;;5.03;3.60;;;6.90;99.90;;;;;;5094769;28;20540;-70
2023/01/03 05:10:53;;;;;;;4.97;3.30;;;6.90;99.90;;;;;;5087535;28;20629;-71
2023/01/03 05:13:19;;;;;;;6.93;3.60;;;6.90;99.90;;;;;;5091386;28;20500;-69
2023/01/03 05:15:46;;;;;;;4.70;3.45;;;6.90;99.90;;;;;;5082756;28;20429;-68
2023/01/03 05:18:13;;;;;;;5.35;3.42;;;7.00;99.90;;;;;;5081047;28;20439;-69
2023/01/03 05:26:25;;;;;;;5.18;3.10;;;7.10;99.90;;;;;;5004526;28;20814;-68
2023/01/03 05:28:54;;;;;;;3.47;2.83;;;7.20;99.90;;;;;;4998413;28;20443;-70
2023/01/03 05:31:21;;;;;;;4.55;2.90;;;7.20;99.50;;;;;;5036415;28;20437;-68
2023/01/03 05:33:48;;;;;;;4.50;3.20;;;7.20;99.50;;;;;;5086098;28;20436;-68
2023/01/03 05:36:14;;;;;;;5.15;3.33;;;7.20;99.40;;;;;;5097970;28;20486;-70
2023/01/03 05:38:41;;;;;;;4.47;3.50;;;7.20;99.50;;;;;;5097236;28;20420;-67
2023/01/03 05:41:08;;;;;;;4.80;3.75;;;7.20;99.30;;;;;;5090967;28;20426;-68
2023/01/03 05:43:37;;;;;;;5.82;4.20;;;7.20;99.00;;;;;;5089002;28;20424;-69
2023/01/03 05:46:03;;;;;;;5.43;4.10;;;7.10;99.20;;;;;;5080354;28;20437;-68
2023/01/03 05:48:30;;;;;;;6.00;4.60;;;7.00;99.60;;;;;;5095812;28;20462;-70
2023/01/03 05:50:57;;;;;;;6.20;5.10;;;6.80;99.90;;;;;;5097628;28;20409;-71
2023/01/03 05:53:24;;;;;;;6.30;5.00;;;6.70;99.90;;;;;;5096101;28;20457;-68
2023/01/03 05:55:51;;;;;;;5.40;4.90;;;6.50;99.90;;;;;;5095198;28;20498;-69
2023/01/03 05:58:18;;;;;;;6.70;4.80;;;6.40;99.90;;;;;;5091164;28;20417;-68
2023/01/03 06:00:46;;;;;;;4.88;4.20;;;6.30;99.90;;;;;;5088969;28;20418;-69
2023/01/03 06:03:13;;;;;;;5.00;3.97;;;6.20;99.90;;;;;;5086930;28;20483;-70
2023/01/03 06:05:39;;;;;;;6.65;4.07;;;6.20;99.90;;;;;;5087310;28;20444;-68
2023/01/03 06:08:06;;;;;;;5.15;4.38;;;6.10;99.90;;;;;;5077627;28;20440;-70
2023/01/03 06:10:33;;;;;;;6.25;3.80;;;6.10;99.90;;;;;;5087602;28;20449;-70
2023/01/03 06:12:59;;;;;;;5.30;3.80;;;6.10;99.90;;;;;;5077508;28;21010;-70
2023/01/03 06:15:26;;;;;;;4.00;3.60;;;6.00;99.90;;;;;;5078196;28;20792;-70
2023/01/03 06:17:53;;;;;;;4.88;3.50;;;6.00;99.90;;;;;;5086699;28;20436;-69
2023/01/03 06:20:20;;;;;;;4.82;4.28;;;6.00;99.90;;;;;;5086003;28;20926;-69
2023/01/03 06:22:47;;;;;;;4.30;4.00;;;6.00;99.90;;;;;;5083266;28;20418;-70
2023/01/03 06:25:14;;;;;;;4.83;4.33;;;6.00;99.90;;;;;;5074134;28;20457;-70
2023/01/03 06:27:40;;;;;;;7.70;5.10;;;5.90;99.90;;;;;;5072605;28;20489;-70
2023/01/03 06:30:09;;;;;;;5.03;4.43;;;5.80;99.90;;;;;;5086572;28;20418;-70
2023/01/03 06:32:36;;;;;;;5.07;4.47;;;5.80;99.90;;;;;;5084680;28;20410;-70
2023/01/03 06:35:04;;;;;;;5.53;4.93;;;5.70;99.90;;;;;;5085810;28;20417;-70
2023/01/03 06:37:31;;;;;;;5.40;4.65;;;5.60;99.90;;;;;;5088582;28;20426;-70
2023/01/03 06:39:57;;;;;;;6.13;5.00;;;5.60;99.90;;;;;;5092671;28;20810;-70
2023/01/03 06:42:41;;;;;;;5.10;4.60;;;5.70;99.90;;;;;;5093534;28;20420;-70
2023/01/03 06:53:33;;;;;;;4.40;4.00;;;6.40;99.90;;;;;;5083573;28;20436;-70
2023/01/03 06:56:00;;;;;;;5.18;4.78;;;6.40;99.90;;;;;;5076056;28;20448;-70
2023/01/03 06:58:27;;;;;;;4.10;3.70;;;6.40;99.90;;;;;;5082437;28;20426;-67
2023/01/03 07:00:55;;;;;;;5.65;5.00;;;6.40;99.90;;;;;;5087902;28;20409;-68
2023/01/03 07:03:23;;;;;;;5.05;4.30;;;6.40;99.90;;;;;;5072659;28;20881;-70
2023/01/03 07:05:52;;;;;;;6.18;4.70;;;6.40;99.90;;;;;;5087648;28;20923;-70
2023/01/03 07:08:19;;;;;;;4.77;4.17;;;6.50;99.90;;;;;;5073978;28;20445;-70
2023/01/03 07:10:45;;;;;;;4.53;4.13;;;6.60;99.90;;;;;;5077852;28;20409;-69
2023/01/03 07:15:56;;;;;;;4.70;4.13;;;6.80;99.90;;;;;;5087863;28;20432;-70
2023/01/03 07:18:25;;;;;;;5.28;3.80;;;6.90;99.70;;;;;;5087195;28;20452;-69
2023/01/03 07:20:53;;;;;;;4.50;3.95;;;6.90;99.60;;;;;;5087344;28;20421;-68
2023/01/03 07:23:20;;;;;;;4.40;3.80;;;6.80;99.60;;;;;;5083875;28;20437;-69
2023/01/03 07:25:46;;;;;;;4.00;3.70;;;6.90;99.40;;;;;;5087141;28;20438;-70
2023/01/03 07:28:15;;;;;;;4.30;3.90;;;6.90;99.00;;;;;;5088500;28;20426;-68
2023/01/03 07:30:45;;;;;;;5.47;4.60;;;6.80;99.00;;;;;;5087296;28;20421;-70
2023/01/03 07:33:13;;;;;;;4.75;3.83;;;6.80;99.50;;;;;;5086098;28;20910;-69
2023/01/03 07:35:40;;;;;;;5.32;3.80;;;6.80;99.30;;;;;;5087089;28;20478;-68
2023/01/03 07:38:09;;;;;;;4.30;3.90;;;6.90;99.40;;;;;;5074335;28;20438;-70
2023/01/03 07:40:35;;;;;;;4.57;4.18;;;6.90;99.60;;;;;;5087259;28;20525;-68
2023/01/03 07:45:47;;;;;;;5.50;4.03;;;7.10;98.80;;;;;;5083016;28;20531;-68
2023/01/03 07:48:14;;;;;;;4.75;3.50;;;7.10;98.70;;;;;;5089978;28;20418;-70
2023/01/03 07:50:42;;;;;;;4.22;3.80;;;7.20;98.50;;;;;;5080549;28;20471;-70
2023/01/03 07:53:15;;;;;;;4.18;3.78;;;7.20;98.50;;;;;;5080987;28;20583;-70
2023/01/03 07:55:42;;;;;;;4.45;3.40;;;7.20;98.60;;;;;;5086514;28;20441;-74
2023/01/03 07:58:09;;;;;;;3.50;3.20;;;7.30;98.40;;;;;;5087440;28;20452;-68
2023/01/03 08:00:36;;;;;;;3.95;3.42;;;7.30;98.00;;;;;;5089688;28;20888;-70
2023/01/03 08:03:03;;;;;;;4.38;3.80;;;7.20;97.90;;;;;;5074227;28;20402;-68
2023/01/03 08:05:29;;;;;;;4.00;3.60;;;7.20;98.10;;;;;;5078464;28;20456;-68
2023/01/03 08:07:56;;;;;;;6.93;3.90;;;7.10;98.40;;;;;;5082695;28;20431;-67
2023/01/03 08:13:18;;;;;;;4.32;3.40;;;7.20;98.50;;;;;;5080803;28;20441;-67
2023/01/03 08:15:46;;;;;;;5.60;3.60;;;7.20;98.30;;;;;;5095188;28;20422;-67
2023/01/03 08:18:13;;;;;;;4.95;3.45;;;7.30;98.30;;;;;;5089086;28;20443;-67
2023/01/03 08:20:40;;;;;;;4.82;3.22;;;7.30;98.30;;;;;;5080042;28;20533;-69
2023/01/03 08:23:07;;;;;;;5.35;3.50;;;7.40;98.20;;;;;;5084875;28;20445;-66
2023/01/03 08:25:35;;;;;;;3.90;3.20;;;7.50;98.20;;;;;;5088392;28;20440;-68
2023/01/03 08:28:02;;;;;;;3.80;3.40;;;7.50;97.80;;;;;;5086654;28;20450;-68
2023/01/03 08:30:29;;;;;;;4.30;3.30;;;7.50;97.60;;;;;;5088588;28;20421;-68
2023/01/03 08:32:59;;;;;;;3.83;3.10;;;7.50;97.70;;;;;;5088127;28;20426;-70
2023/01/03 08:35:28;;;;;;;3.73;3.43;;;7.50;97.80;;;;;;5087128;28;20531;-68
2023/01/03 08:37:55;;;;;;;3.60;3.35;;;7.50;97.70;;;;;;5083465;28;20433;-68
2023/01/03 08:40:22;;;;;;;4.70;3.50;;;7.50;97.70;;;;;;5084124;28;20556;-70
2023/01/03 08:42:50;;;;;;;4.10;3.70;;;7.50;97.80;;;;;;5083549;28;20434;-68
2023/01/03 08:45:18;;;;;;;5.20;4.07;;;7.40;98.00;;;;;;5085301;28;20409;-70
2023/01/03 08:47:46;;;;;;;4.10;3.80;;;7.40;98.20;;;;;;5097740;28;20460;-70
2023/01/03 08:50:14;;;;;;;4.40;4.00;;;7.30;98.20;;;;;;5097574;28;20423;-68
2023/01/03 08:52:41;;;;;;;4.63;4.10;;;7.20;98.40;;;;;;5083840;28;20472;-70
2023/01/03 08:55:08;;;;;;;5.50;3.77;;;7.20;98.60;;;;;;5084753;28;20421;-67
2023/01/03 08:57:35;;;;;;;5.00;4.10;;;7.10;98.70;;;;;;5085267;28;20413;-67
2023/01/03 09:00:05;;;;;;;5.28;4.15;;;7.10;98.70;;;;;;5072195;28;20406;-68
2023/01/03 09:02:34;;;;;;;4.47;3.85;;;7.20;98.70;;;;;;5083745;28;20449;-67
2023/01/03 09:05:00;;;;;;;4.68;3.83;;;7.20;99.20;;;;;;5083315;28;20466;-68
2023/01/03 09:07:27;;;;;;;4.75;3.90;;;7.40;99.40;;;;;;5082845;28;20433;-68
2023/01/03 09:09:54;;;;;;;5.60;3.50;;;7.70;98.60;;;;;;5085231;28;20413;-70
2023/01/03 09:12:21;;;;;;;4.85;3.80;;;7.90;96.80;;;;;;5084720;28;20869;-70
2023/01/03 09:14:47;;;;;;;3.85;3.40;;;8.10;96.20;;;;;;5086180;28;20417;-68
2023/01/03 09:17:15;;;;;;;5.88;3.60;;;8.20;95.50;;;;;;5084218;28;20920;-70
2023/01/03 09:19:42;;;;;;;4.68;3.35;;;8.40;95.20;;;;;;5087017;28;20868;-69
2023/01/03 09:22:09;;;;;;;5.13;3.35;;;8.60;94.80;;;;;;5084397;28;20888;-68
2023/01/03 09:24:36;;;;;;;4.20;3.80;;;8.70;94.10;;;;;;5086275;28;20418;-70
2023/01/03 09:27:02;;;;;;;3.50;3.20;;;8.90;93.20;;;;;;5086839;28;20433;-71
2023/01/03 09:29:29;;;;;;;3.80;3.40;;;9.10;92.90;;;;;;5087066;28;20604;-68
2023/01/03 09:31:56;;;;;;;5.15;3.35;;;9.20;92.50;;;;;;5084697;28;20433;-68
2023/01/03 09:34:24;;;;;;;4.13;3.70;;;9.20;91.80;;;;;;5084933;28;21051;-68
2023/01/03 09:36:51;;;;;;;4.57;3.67;;;9.30;92.00;;;;;;5084450;28;20410;-70
2023/01/03 09:39:17;;;;;;;3.85;3.45;;;9.20;91.90;;;;;;5082377;28;20433;-70
2023/01/03 09:43:11;;;;;;;3.70;3.40;;;9.20;92.20;;;;;;5084063;28;20437;-69
2023/01/03 09:44:31;;;;;;;5.53;3.80;;;9.30;92.30;;;;;;5078146;28;20937;-68
2023/01/03 09:46:58;;;;;;;5.18;3.35;;;9.30;92.20;;;;;;5085318;28;20435;-69
2023/01/03 09:49:26;;;;;;;5.18;3.70;;;9.50;91.70;;;;;;5079061;28;20422;-68
2023/01/03 10:06:19;;;;;;;4.88;3.75;;;9.90;90.50;;;;;;5087811;28;20433;-69
2023/01/03 10:09:01;;;;;;;4.00;3.60;;;9.70;90.90;;;;;;5085416;28;20443;-68
2023/01/03 10:11:36;;;;;;;4.38;3.60;;;9.60;91.70;;;;;;5099693;28;20402;-68
2023/01/03 10:14:17;;;;;;;3.38;3.08;;;9.80;91.60;;;;;;5105108;28;20405;-69
2023/01/03 10:16:54;;;;;;;3.60;3.30;;;10.30;90.70;;;;;;5083707;28;20436;-70
2023/01/03 10:19:51;;;;;;;3.38;3.00;;;10.80;87.60;;;;;;5083241;28;20461;-69
2023/01/03 10:22:22;;;;;;;4.10;2.90;;;11.10;85.40;;;;;;5069535;28;20429;-68
2023/01/03 10:24:55;;;;;;;4.85;3.25;;;11.40;84.10;;;;;;5081792;28;20453;-70
2023/01/03 10:27:26;;;;;;;3.53;2.80;;;11.70;81.00;;;;;;5083102;28;20425;-70
2023/01/03 10:29:55;;;;;;;3.70;3.30;;;11.90;80.10;;;;;;5083144;28;20454;-70
2023/01/03 10:32:43;;;;;;;3.65;2.80;;;12.10;78.90;;;;;;5080144;28;20515;-70
2023/01/03 10:35:19;;;;;;;3.03;2.72;;;12.20;78.60;;;;;;5082294;28;20413;-68
2023/01/03 10:37:50;;;;;;;3.30;2.75;;;12.30;77.60;;;;;;5075776;28;20412;-70
2023/01/03 10:40:17;;;;;;;3.80;2.92;;;12.50;77.00;;;;;;5085289;28;20433;-69
2023/01/03 10:42:45;;;;;;;3.85;2.88;;;12.80;76.80;;;;;;5086356;28;20414;-68
2023/01/03 10:45:14;;;;;;;5.40;2.65;;;12.80;75.10;;;;;;5087954;28;20786;-68
2023/01/03 10:47:41;;;;;;;2.80;2.50;;;12.90;75.10;;;;;;5088091;28;20775;-67
2023/01/03 10:50:20;;;;;;;2.90;1.50;;;13.00;72.30;;;;;;5087731;28;20455;-69
2023/01/03 10:52:53;;;;;;;2.72;1.35;;;12.90;71.20;;;;;;5090820;28;20417;-69
2023/01/03 10:55:22;;;;;;;2.75;1.33;;;12.70;71.90;;;;;;5088750;28;20438;-69
2023/01/03 10:57:59;;;;;;;2.40;1.20;;;12.70;73.40;;;;;;5088336;28;20417;-69
2023/01/03 11:00:32;;;;;;;1.75;1.00;;;12.90;70.70;;;;;;5102494;28;20496;-68
2023/01/03 11:03:11;;;;;;;2.60;1.08;;;12.80;70.20;;;;;;5104288;28;20408;-69
2023/01/03 11:05:40;;;;;;;2.40;1.00;;;12.70;69.90;;;;;;5101128;28;20421;-68
2023/01/03 11:08:16;;;;;;;2.95;1.17;;;12.40;71.10;;;;;;5099360;28;20521;-68
2023/01/03 11:10:51;;;;;;;2.40;1.00;;;12.40;71.60;;;;;;5099280;28;20409;-67
2023/01/03 11:13:33;;;;;;;2.85;1.20;;;12.40;71.30;;;;;;5091971;28;20414;-69
2023/01/03 11:16:02;;;;;;;2.33;1.15;;;12.50;70.40;;;;;;5109339;28;20432;-68
2023/01/03 11:18:30;;;;;;;2.67;1.10;;;12.50;71.10;;;;;;5102800;28;20417;-67
2023/01/03 11:21:06;;;;;;;2.92;1.20;;;12.60;69.60;;;;;;5105747;28;20426;-67
2023/01/03 11:23:47;;;;;;;2.30;1.20;;;12.40;70.40;;;;;;5091939;28;20405;-68
2023/01/03 11:26:23;;;;;;;2.53;1.10;;;12.40;71.50;;;;;;5086293;28;20852;-68
2023/01/03 11:29:02;;;;;;;2.30;0.90;;;12.30;71.30;;;;;;5077992;28;20425;-69
2023/01/03 11:31:39;;;;;;;3.10;1.00;;;12.20;71.40;;;;;;5090559;28;20422;-69
2023/01/03 11:34:29;;;;;;;1.83;1.10;;;12.20;70.70;;;;;;5067633;28;20415;-68
2023/01/03 11:37:05;;;;;;;3.65;0.90;;;12.20;71.30;;;;;;5082002;28;20430;-69
2023/01/03 11:39:58;;;;;;;2.83;1.10;;;12.40;70.50;;;;;;5087308;28;20443;-68
2023/01/03 11:42:35;;;;;;;3.10;0.90;;;12.70;69.90;;;;;;5083390;28;20429;-70
2023/01/03 11:45:36;;;;;;;1.48;0.88;;;13.00;67.40;;;;;;5088221;28;20422;-68
2023/01/03 11:48:29;;;;;;;2.70;1.00;;;13.10;66.40;;;;;;5088542;28;20816;-68
2023/01/03 11:51:08;;;;;;;2.03;1.20;;;13.00;67.20;;;;;;5087673;28;20505;-68
2023/01/03 11:53:36;;;;;;;3.10;1.20;;;12.80;66.90;;;;;;5082806;28;21049;-68
2023/01/03 11:56:16;;;;;;;2.53;0.80;;;12.60;67.70;;;;;;5089675;28;20856;-69
2023/01/03 11:59:06;;;;;;;2.10;1.00;;;12.70;68.70;;;;;;5079524;28;20434;-69
2023/01/03 12:02:02;;;;;;;1.83;1.10;;;13.00;67.10;;;;;;5085332;28;20487;-68
2023/01/03 12:04:34;;;;;;;2.28;0.80;;;13.20;65.30;;;;;;5075801;28;20872;-68
2023/01/03 12:07:13;;;;;;;2.80;1.00;;;13.30;65.00;;;;;;5082542;28;20412;-68
2023/01/03 12:09:49;;;;;;;3.15;0.90;;;13.10;66.60;;;;;;5078463;28;20631;-68
2023/01/03 12:12:49;;;;;;;3.58;1.17;;;13.00;67.40;;;;;;5083009;28;20436;-69
2023/01/03 12:15:22;;;;;;;2.33;1.10;;;12.80;67.10;;;;;;5078992;28;20418;-68
2023/01/03 12:17:55;;;;;;;2.50;1.27;;;12.60;67.70;;;;;;5090956;28;20420;-69
2023/01/03 12:20:26;;;;;;;2.60;1.00;;;12.30;68.90;;;;;;5094421;28;20425;-68
2023/01/03 12:22:57;;;;;;;2.00;1.20;;;12.20;70.00;;;;;;5093155;28;20457;-68
2023/01/03 12:25:28;;;;;;;1.73;1.00;;;12.20;69.80;;;;;;5089117;28;20436;-68
2023/01/03 12:28:01;;;;;;;2.90;0.93;;;12.10;71.20;;;;;;5086013;28;20421;-68
2023/01/03 12:30:37;;;;;;;2.17;0.90;;;12.20;69.70;;;;;;5100421;28;20883;-68
2023/01/03 12:33:16;;;;;;;2.45;0.90;;;12.10;69.80;;;;;;5090559;28;20556;-68
2023/01/03 12:35:49;;;;;;;2.00;0.90;;;12.10;69.20;;;;;;5087290;28;20445;-67
2023/01/03 12:38:18;;;;;;;3.70;1.40;;;12.10;70.00;;;;;;5086652;28;20422;-68
2023/01/03 12:40:52;;;;;;;2.20;1.10;;;12.10;70.50;;;;;;5086998;28;20452;-67
2023/01/03 12:43:27;;;;;;;2.13;1.30;;;12.30;70.50;;;;;;5065089;28;20415;-68
2023/01/03 12:46:00;;;;;;;3.03;1.40;;;12.30;68.90;;;;;;5083286;28;20414;-69
2023/01/03 12:48:52;;;;;;;3.03;1.20;;;12.10;69.20;;;;;;5079461;28;20430;-69
2023/01/03 12:51:21;;;;;;;3.67;1.30;;;12.00;70.20;;;;;;5089368;28;20504;-67
2023/01/03 12:53:53;;;;;;;2.00;1.20;;;11.80;71.50;;;;;;5087723;28;20885;-68
2023/01/03 12:56:51;;;;;;;3.65;1.10;;;11.70;72.10;;;;;;5092876;28;20897;-69
2023/01/03 12:59:44;;;;;;;3.80;1.30;;;11.70;72.20;;;;;;5090109;28;20514;-68
2023/01/03 13:02:22;;;;;;;1.40;0.80;;;11.50;73.00;;;;;;5088607;28;20499;-69
2023/01/03 13:04:52;;;;;;;4.00;1.20;;;11.40;73.20;;;;;;5091912;28;20425;-69
2023/01/03 13:07:22;;;;;;;2.30;1.00;;;11.40;73.90;;;;;;5088850;28;20430;-69
2023/01/03 13:09:55;;;;;;;2.25;1.10;;;11.30;73.00;;;;;;5083620;28;20417;-69
2023/01/03 13:12:25;;;;;;;1.77;0.80;;;11.20;72.30;;;;;;5084584;28;20467;-68
2023/01/03 13:14:54;;;;;;;2.60;0.90;;;11.20;69.50;;;;;;5092476;28;20397;-69
2023/01/03 13:17:25;;;;;;;1.80;1.00;;;11.20;69.30;;;;;;5091103;28;20436;-68
2023/01/03 13:19:57;;;;;;;1.95;0.80;;;11.40;69.80;;;;;;5090183;28;20764;-69
2023/01/03 13:22:50;;;;;;;1.75;0.80;;;11.60;67.60;;;;;;5083137;28;20420;-68
2023/01/03 13:25:36;;;;;;;2.70;0.82;;;11.70;67.40;;;;;;5086025;28;20464;-69
2023/01/03 13:28:06;;;;;;;1.67;0.80;;;11.80;67.80;;;;;;5092689;28;20425;-67
2023/01/03 13:30:34;;;;;;;2.42;1.00;;;11.80;66.80;;;;;;5088048;28;20415;-68
2023/01/03 13:33:16;;;;;;;2.97;1.00;;;11.90;66.10;;;;;;5098394;28;20428;-67
2023/01/03 13:35:59;;;;;;;1.70;0.70;;;12.00;66.60;;;;;;5089399;28;20434;-69
2023/01/03 13:38:31;;;;;;;1.50;0.70;;;12.20;65.00;;;;;;5083867;28;20417;-69
2023/01/03 13:40:59;;;;;;;1.40;0.80;;;12.40;64.70;;;;;;5070050;28;20435;-68
2023/01/03 13:43:32;;;;;;;2.10;0.70;;;12.80;63.00;;;;;;5081164;28;20429;-68
2023/01/03 13:46:21;;;;;;;3.08;0.80;;;12.80;62.50;;;;;;5086424;28;20413;-68
2023/01/03 13:49:00;;;;;;;1.90;0.80;;;13.40;62.30;;;;;;5069520;28;20453;-68
2023/01/03 13:51:49;;;;;;;2.25;0.98;;;13.60;59.60;;;;;;5088169;28;20422;-68
2023/01/03 13:54:56;;;;;;;1.30;0.80;;;13.30;61.00;;;;;;5077345;28;20418;-68
2023/01/03 13:57:34;;;;;;;2.35;0.90;;;13.30;61.10;;;;;;5075914;28;20421;-68
2023/01/03 14:00:02;;;;;;;2.53;1.10;;;13.10;60.60;;;;;;5083139;28;20449;-68
2023/01/03 14:03:01;;;;;;;2.17;0.90;;;12.90;61.20;;;;;;5083219;28;20418;-69
2023/01/03 14:06:09;;;;;;;2.20;0.73;;;12.60;61.50;;;;;;5075762;28;20470;-68
2023/01/03 14:08:55;;;;;;;2.50;0.90;;;12.40;62.30;;;;;;5076407;28;20425;-68
2023/01/03 14:11:32;;;;;;;1.58;0.77;;;12.10;63.40;;;;;;5069421;28;20419;-68
2023/01/03 14:14:04;;;;;;;2.00;0.70;;;12.20;63.40;;;;;;5069813;28;20421;-69
2023/01/03 14:16:43;;;;;;;1.90;0.70;;;12.60;62.10;;;;;;5094572;28;20430;-68
2023/01/03 14:19:19;;;;;;;2.40;1.00;;;12.50;62.30;;;;;;5092286;28;20413;-68
2023/01/03 14:21:50;;;;;;;2.47;0.90;;;12.20;63.60;;;;;;5088213;28;20422;-68